Time;durP1;ratioP1;P1;durP2;ratioP2;P2;SDS_P1;SDS_P2;PMS_P1;PMS_P2;Temp;Humidity;BMP_temperature;BMP_pressure;BME280_temperature;BME280_humidity;BME280_pressure;Samples;Min_cycle;Max_cycle;Signal;HPM_P1;HPM_P2
2024/01/31 00:01:51;;;;;;;;;;;;;;;15.69;38.23;102854.81;4892613;29;1114;-46
2024/01/31 00:04:17;;;;;;;;;;;;;;;17.10;35.47;102858.44;4897833;29;1110;-48
2024/01/31 00:06:43;;;;;;;;;;;;;;;17.10;35.10;102853.97;4901561;29;1961;-47
2024/01/31 00:09:09;;;;;;;;;;;;;;;16.21;37.00;102854.75;4900930;29;1050;-51
2024/01/31 00:11:35;;;;;;;;;;;;;;;15.81;37.84;102856.19;4894126;29;954;-48
2024/01/31 00:14:02;;;;;;;;;;;;;;;15.52;38.08;102854.50;4901385;29;1101;-46
2024/01/31 00:16:28;;;;;;;;;;;;;;;17.02;35.55;102858.72;4900539;29;1069;-48
2024/01/31 00:18:54;;;;;;;;;;;;;;;17.30;34.88;102854.91;4901510;29;1106;-50
2024/01/31 00:21:19;;;;;;;;;;;;;;;16.31;36.81;102854.41;4892491;29;1113;-49
2024/01/31 00:23:45;;;;;;;;;;;;;;;15.85;37.71;102844.53;4896320;29;876;-51
2024/01/31 00:26:11;;;;;;;;;;;;;;;15.54;38.30;102854.44;4891761;29;1902;-45
2024/01/31 00:28:36;;;;;;;;;;;;;;;16.80;35.89;102856.06;4886304;29;1379;-49
2024/01/31 00:31:02;;;;;;;;;;;;;;;17.56;34.42;102852.09;4891440;29;1179;-47
2024/01/31 00:33:27;;;;;;;;;;;;;;;16.47;36.37;102854.66;4885767;29;1261;-49
2024/01/31 00:35:53;;;;;;;;;;;;;;;15.88;37.46;102860.34;4899803;29;856;-45
2024/01/31 00:38:18;;;;;;;;;;;;;;;15.77;37.79;102858.94;4900376;29;1117;-48
2024/01/31 00:40:44;;;;;;;;;;;;;;;17.27;35.16;102856.88;4892489;29;1153;-49
2024/01/31 00:43:10;;;;;;;;;;;;;;;17.02;35.39;102856.91;4882488;29;1047;-46
2024/01/31 00:45:35;;;;;;;;;;;;;;;16.16;36.90;102849.59;4881721;29;1899;-50
2024/01/31 00:48:00;;;;;;;;;;;;;;;15.82;37.44;102857.91;4899357;29;885;-50
2024/01/31 00:50:26;;;;;;;;;;;;;;;15.48;38.59;102855.50;4900761;29;1283;-46
2024/01/31 00:52:51;;;;;;;;;;;;;;;17.04;35.68;102855.97;4900591;29;1073;-52
2024/01/31 00:55:17;;;;;;;;;;;;;;;17.20;34.97;102858.91;4900923;29;1058;-48
2024/01/31 00:57:44;;;;;;;;;;;;;;;16.27;36.94;102856.28;4898817;29;1128;-49
2024/01/31 01:00:11;;;;;;;;;;;;;;;15.83;37.63;102857.00;4899354;29;839;-49
2024/01/31 01:02:40;;;;;;;;;;;;;;;15.49;38.11;102859.91;4900788;29;1093;-48
2024/01/31 01:05:06;;;;;;;;;;;;;;;16.83;35.90;102861.25;4891814;29;1984;-50
2024/01/31 01:07:31;;;;;;;;;;;;;;;17.38;34.62;102859.94;4897207;29;1153;-47
2024/01/31 01:09:57;;;;;;;;;;;;;;;16.25;36.64;102853.69;4900418;29;1097;-48
2024/01/31 01:12:22;;;;;;;;;;;;;;;15.77;37.71;102847.44;4884600;29;1097;-47
2024/01/31 01:14:48;;;;;;;;;;;;;;;15.40;38.24;102842.53;4891846;29;1154;-51
2024/01/31 01:17:13;;;;;;;;;;;;;;;16.69;36.25;102841.41;4885007;29;1066;-46
2024/01/31 01:19:39;;;;;;;;;;;;;;;17.40;34.66;102839.44;4900428;29;1050;-49
2024/01/31 01:22:04;;;;;;;;;;;;;;;16.42;36.48;102844.22;4887110;29;1062;-49
2024/01/31 01:24:30;;;;;;;;;;;;;;;15.79;37.70;102838.53;4890578;29;1133;-50
2024/01/31 01:26:55;;;;;;;;;;;;;;;15.53;38.01;102835.00;4899517;29;1919;-49
2024/01/31 01:29:21;;;;;;;;;;;;;;;17.01;35.51;102838.38;4894548;29;1178;-50
2024/01/31 01:31:46;;;;;;;;;;;;;;;18.16;34.36;102837.03;4892310;29;1137;-47
2024/01/31 01:34:12;;;;;;;;;;;;;;;16.44;36.84;102836.19;4903184;29;1058;-46
2024/01/31 01:36:37;;;;;;;;;;;;;;;15.65;38.15;102803.66;4899719;29;1149;-46
2024/01/31 01:39:03;;;;;;;;;;;;;;;16.17;37.34;102831.88;4904679;29;1062;-47
2024/01/31 01:41:29;;;;;;;;;;;;;;;17.45;35.15;102829.47;4904187;29;1126;-48
2024/01/31 01:43:54;;;;;;;;;;;;;;;16.63;36.26;102829.22;4904223;29;1038;-46
2024/01/31 01:46:21;;;;;;;;;;;;;;;15.86;37.70;102819.72;4902736;29;1910;-46
2024/01/31 01:48:55;;;;;;;;;;;;;;;15.61;38.67;102817.97;4894103;29;1093;-49
2024/01/31 01:51:23;;;;;;;;;;;;;;;16.28;37.21;102826.19;4891543;29;1047;-50
2024/01/31 01:53:48;;;;;;;;;;;;;;;17.45;35.02;102818.81;4904152;29;1160;-47
2024/01/31 01:56:16;;;;;;;;;;;;;;;16.62;36.10;102813.34;4915871;29;1322;-47
2024/01/31 01:58:41;;;;;;;;;;;;;;;15.92;37.54;102822.16;4891175;29;1237;-49
2024/01/31 02:01:07;;;;;;;;;;;;;;;15.64;38.11;102810.75;4888828;29;1083;-48
2024/01/31 02:03:33;;;;;;;;;;;;;;;15.97;38.02;102806.03;4903975;29;1245;-48
2024/01/31 02:06:01;;;;;;;;;;;;;;;17.25;35.20;102801.91;4903548;29;1907;-51
2024/01/31 02:08:27;;;;;;;;;;;;;;;16.77;36.06;102802.09;4903921;29;1062;-46
2024/01/31 02:10:52;;;;;;;;;;;;;;;16.04;37.28;102802.28;4903457;29;1092;-48
2024/01/31 02:13:18;;;;;;;;;;;;;;;15.61;38.10;102796.72;4895060;29;1209;-45
2024/01/31 02:15:52;;;;;;;;;;;;;;;15.64;38.60;102799.28;4888061;29;1092;-49
2024/01/31 02:18:18;;;;;;;;;;;;;;;17.13;35.40;102799.81;4903875;29;1229;-49
2024/01/31 02:20:43;;;;;;;;;;;;;;;16.94;35.54;102795.22;4903350;29;1109;-48
2024/01/31 02:23:09;;;;;;;;;;;;;;;16.13;36.99;102799.25;4898459;29;1038;-50
2024/01/31 02:25:34;;;;;;;;;;;;;;;15.62;38.16;102791.38;4917931;29;1883;-48
2024/01/31 02:28:00;;;;;;;;;;;;;;;16.27;37.04;102804.06;4893907;29;1022;-49
2024/01/31 02:30:25;;;;;;;;;;;;;;;17.48;34.79;102792.06;4900876;29;1175;-50
2024/01/31 02:32:54;;;;;;;;;;;;;;;16.79;35.77;102791.41;4903249;29;1102;-49
2024/01/31 02:35:19;;;;;;;;;;;;;;;16.08;37.24;102787.09;4900789;29;1077;-49
2024/01/31 02:37:45;;;;;;;;;;;;;;;15.69;38.11;102780.53;4903319;29;1074;-49
2024/01/31 02:40:10;;;;;;;;;;;;;;;16.57;36.64;102779.00;4902577;29;1069;-52
2024/01/31 02:42:36;;;;;;;;;;;;;;;17.58;34.50;102775.72;4893328;29;1441;-52
2024/01/31 02:45:01;;;;;;;;;;;;;;;16.52;36.41;102776.53;4900440;29;1899;-50
2024/01/31 02:47:27;;;;;;;;;;;;;;;15.93;37.77;102777.91;4899376;29;1150;-46
2024/01/31 02:49:52;;;;;;;;;;;;;;;15.62;38.04;102769.28;4903093;29;997;-49
2024/01/31 02:52:18;;;;;;;;;;;;;;;16.39;36.75;102775.28;4903279;29;1049;-53
2024/01/31 02:54:43;;;;;;;;;;;;;;;17.50;34.63;102768.91;4899948;29;1077;-49
2024/01/31 02:57:09;;;;;;;;;;;;;;;16.53;36.36;102766.78;4885013;29;1185;-50
2024/01/31 02:59:34;;;;;;;;;;;;;;;15.88;37.55;102765.66;4899659;29;1075;-50
2024/01/31 03:02:00;;;;;;;;;;;;;;;15.54;38.39;102761.59;4893386;29;1189;-47
2024/01/31 03:04:25;;;;;;;;;;;;;;;15.96;37.50;102760.06;4900574;29;1208;-48
2024/01/31 03:06:51;;;;;;;;;;;;;;;17.28;34.96;102757.50;4903067;29;1914;-51
2024/01/31 03:09:16;;;;;;;;;;;;;;;17.08;35.30;102761.88;4886765;29;1094;-49
2024/01/31 03:11:42;;;;;;;;;;;;;;;16.16;36.88;102761.97;4887754;29;1067;-49
2024/01/31 03:14:07;;;;;;;;;;;;;;;15.67;37.89;102759.34;4914493;29;1097;-47
2024/01/31 03:16:33;;;;;;;;;;;;;;;15.54;38.18;102759.81;4903067;29;1042;-49
2024/01/31 03:18:58;;;;;;;;;;;;;;;16.86;35.81;102755.69;4899132;29;1109;-49
2024/01/31 03:21:24;;;;;;;;;;;;;;;17.55;34.40;102755.41;4884105;29;1180;-48
2024/01/31 03:23:50;;;;;;;;;;;;;;;16.48;36.52;102751.00;4896195;29;1078;-49
2024/01/31 03:26:15;;;;;;;;;;;;;;;15.94;37.57;102750.41;4893141;29;1910;-46
2024/01/31 03:28:40;;;;;;;;;;;;;;;15.60;38.33;102755.22;4886244;29;1183;-49
2024/01/31 03:31:06;;;;;;;;;;;;;;;16.33;36.85;102760.44;4902744;29;1132;-48
2024/01/31 03:33:31;;;;;;;;;;;;;;;17.47;34.73;102761.06;4889987;29;1170;-51
2024/01/31 03:35:57;;;;;;;;;;;;;;;16.61;35.95;102756.69;4894718;29;1180;-47
2024/01/31 03:38:23;;;;;;;;;;;;;;;15.94;37.57;102758.38;4896418;29;1031;-51
2024/01/31 03:40:48;;;;;;;;;;;;;;;15.54;38.32;102756.28;4883522;29;1169;-51
2024/01/31 03:43:14;;;;;;;;;;;;;;;16.63;36.42;102751.31;4887527;29;1151;-47
2024/01/31 03:45:39;;;;;;;;;;;;;;;17.50;34.53;102750.28;4902330;29;1903;-48
2024/01/31 03:48:05;;;;;;;;;;;;;;;16.47;36.21;102751.06;4898782;29;1069;-46
2024/01/31 03:50:31;;;;;;;;;;;;;;;15.87;37.65;102758.63;4891352;29;1201;-48
2024/01/31 03:52:56;;;;;;;;;;;;;;;15.55;37.92;102745.63;4896028;29;1082;-48
2024/01/31 03:55:22;;;;;;;;;;;;;;;15.93;37.90;102746.91;4894018;29;1085;-47
2024/01/31 03:57:47;;;;;;;;;;;;;;;17.25;35.11;102747.84;4886974;29;1157;-46
2024/01/31 04:00:13;;;;;;;;;;;;;;;16.88;35.33;102748.47;4890791;29;1093;-50
2024/01/31 04:02:38;;;;;;;;;;;;;;;16.09;37.27;102755.19;4889499;29;1252;-48
2024/01/31 04:05:04;;;;;;;;;;;;;;;15.70;37.74;102753.94;4901994;29;1899;-51
2024/01/31 04:07:30;;;;;;;;;;;;;;;15.37;38.72;102759.53;4901743;29;1108;-46
2024/01/31 04:09:55;;;;;;;;;;;;;;;16.65;36.33;102773.34;4902366;29;1089;-48
2024/01/31 04:12:21;;;;;;;;;;;;;;;17.29;34.82;102751.25;4895833;29;1041;-50
2024/01/31 04:14:46;;;;;;;;;;;;;;;16.28;36.72;102757.97;4901782;29;1067;-50
2024/01/31 04:17:12;;;;;;;;;;;;;;;15.76;37.48;102759.03;4901946;29;1153;-49
2024/01/31 04:19:37;;;;;;;;;;;;;;;15.43;38.64;102754.88;4901569;29;1115;-49
2024/01/31 04:22:03;;;;;;;;;;;;;;;16.87;36.02;102754.75;4889152;29;1110;-44
2024/01/31 04:24:28;;;;;;;;;;;;;;;16.99;35.30;102756.00;4893125;29;1122;-53
2024/01/31 04:26:54;;;;;;;;;;;;;;;16.05;37.22;102758.88;4898655;29;1982;-49
2024/01/31 04:29:20;;;;;;;;;;;;;;;15.74;37.92;102763.53;4901659;29;1073;-51
2024/01/31 04:31:49;;;;;;;;;;;;;;;15.54;38.32;102758.94;4901072;29;1192;-50
2024/01/31 04:34:15;;;;;;;;;;;;;;;17.05;35.40;102762.84;4901746;29;1089;-48
2024/01/31 04:36:40;;;;;;;;;;;;;;;16.98;35.13;102764.91;4900923;29;1005;-51
2024/01/31 04:39:06;;;;;;;;;;;;;;;16.13;36.60;102771.88;4901336;29;1140;-55
2024/01/31 04:41:31;;;;;;;;;;;;;;;15.67;38.01;102764.66;4897083;29;1085;-49
2024/01/31 04:43:57;;;;;;;;;;;;;;;15.93;37.53;102764.63;4890026;29;1129;-44
2024/01/31 04:46:22;;;;;;;;;;;;;;;17.24;35.08;102764.75;4900912;29;1906;-46
2024/01/31 04:48:48;;;;;;;;;;;;;;;16.66;35.79;102769.78;4891426;29;1216;-46
2024/01/31 04:51:14;;;;;;;;;;;;;;;15.90;37.51;102773.56;4898609;29;1011;-44
2024/01/31 04:53:40;;;;;;;;;;;;;;;15.64;37.28;102773.63;4901436;29;1018;-46
2024/01/31 04:56:08;;;;;;;;;;;;;;;15.91;37.06;102768.19;4888659;29;1086;-44
2024/01/31 04:58:34;;;;;;;;;;;;;;;17.22;34.72;102770.13;4892942;29;1250;-46
2024/01/31 05:00:59;;;;;;;;;;;;;;;17.05;34.99;102776.16;4894940;29;1074;-49
2024/01/31 05:03:25;;;;;;;;;;;;;;;16.16;36.52;102782.38;4890098;29;1125;-52
2024/01/31 05:05:50;;;;;;;;;;;;;;;15.69;37.63;102775.22;4900655;29;1903;-50
2024/01/31 05:08:16;;;;;;;;;;;;;;;15.44;37.88;102774.34;4893511;29;1149;-52
2024/01/31 05:10:45;;;;;;;;;;;;;;;16.79;35.76;102777.25;4896164;29;1082;-50
2024/01/31 05:13:12;;;;;;;;;;;;;;;17.42;34.19;102773.72;4898105;29;859;-45
2024/01/31 05:15:38;;;;;;;;;;;;;;;16.36;36.24;102768.31;4901037;29;1205;-52
2024/01/31 05:18:03;;;;;;;;;;;;;;;16.05;37.03;102772.13;4893095;29;1141;-47
2024/01/31 05:20:29;;;;;;;;;;;;;;;17.25;34.69;102772.66;4896944;29;1111;-48
2024/01/31 05:22:55;;;;;;;;;;;;;;;15.59;37.69;102770.25;4888499;29;1161;-48
2024/01/31 05:25:21;;;;;;;;;;;;;;;15.03;38.70;102772.22;4890802;29;1902;-50
2024/01/31 05:27:48;;;;;;;;;;;;;;;16.50;36.43;102772.19;4898863;29;1019;-52
2024/01/31 05:30:13;;;;;;;;;;;;;;;15.65;37.50;102769.16;4901510;29;1217;-51
2024/01/31 05:32:39;;;;;;;;;;;;;;;15.70;37.83;102771.66;4897242;29;1126;-49
2024/01/31 05:35:04;;;;;;;;;;;;;;;17.03;34.93;102767.38;4892322;29;1107;-52
2024/01/31 05:37:30;;;;;;;;;;;;;;;15.47;38.26;102770.69;4896086;29;1153;-48
2024/01/31 05:39:55;;;;;;;;;;;;;;;15.29;38.43;102773.97;4891324;29;1125;-53
2024/01/31 05:42:21;;;;;;;;;;;;;;;16.81;35.50;102778.91;4894870;29;1078;-50
2024/01/31 05:44:47;;;;;;;;;;;;;;;15.34;38.14;102779.09;4882089;29;1134;-51
2024/01/31 05:47:12;;;;;;;;;;;;;;;14.86;39.19;102773.63;4898568;29;2046;-53
2024/01/31 05:49:38;;;;;;;;;;;;;;;16.56;36.58;102771.09;4888027;29;1030;-47
2024/01/31 05:52:04;;;;;;;;;;;;;;;16.03;36.63;102774.00;4898116;29;1237;-52
2024/01/31 05:54:29;;;;;;;;;;;;;;;15.13;38.53;102767.47;4900416;29;1077;-48
2024/01/31 05:56:55;;;;;;;;;;;;;;;16.47;36.56;102772.31;4893075;29;1061;-48
2024/01/31 05:59:20;;;;;;;;;;;;;;;16.56;35.96;102766.66;4882771;29;1085;-52
2024/01/31 06:01:46;;;;;;;;;;;;;;;15.41;38.23;102763.84;4894270;29;951;-46
2024/01/31 06:04:11;;;;;;;;;;;;;;;16.81;35.90;102770.94;4900250;29;1126;-51
2024/01/31 06:06:37;;;;;;;;;;;;;;;15.78;37.61;102766.94;4900674;29;1910;-49
2024/01/31 06:09:05;;;;;;;;;;;;;;;16.26;36.97;102766.94;4888639;29;1263;-49
2024/01/31 06:11:31;;;;;;;;;;;;;;;17.06;35.22;102769.03;4900151;29;1089;-52
2024/01/31 06:13:56;;;;;;;;;;;;;;;15.71;37.65;102771.59;4889918;29;1161;-47
2024/01/31 06:16:22;;;;;;;;;;;;;;;16.83;36.07;102771.72;4903468;29;1137;-47
2024/01/31 06:18:47;;;;;;;;;;;;;;;16.98;35.02;102772.03;4902036;29;1062;-49
2024/01/31 06:21:13;;;;;;;;;;;;;;;15.71;37.70;102782.22;4903684;29;1190;-48
2024/01/31 06:23:38;;;;;;;;;;;;;;;15.69;38.18;102777.88;4897927;29;1047;-48
2024/01/31 06:26:04;;;;;;;;;;;;;;;16.20;36.95;102786.63;4896713;29;1919;-48
2024/01/31 06:28:29;;;;;;;;;;;;;;;15.89;37.95;102783.31;4903874;29;1136;-47
2024/01/31 06:31:03;;;;;;;;;;;;;;;17.75;34.18;102788.22;4891921;29;1144;-49
2024/01/31 06:33:31;;;;;;;;;;;;;;;15.92;37.17;102784.97;4891287;29;1004;-51
2024/01/31 06:35:57;;;;;;;;;;;;;;;15.40;38.53;102791.25;4904019;29;1130;-47
2024/01/31 06:38:23;;;;;;;;;;;;;;;16.35;36.84;102800.25;4895447;29;986;-49
2024/01/31 06:40:49;;;;;;;;;;;;;;;16.48;36.00;102790.84;4903311;29;1117;-48
2024/01/31 06:43:15;;;;;;;;;;;;;;;15.98;37.51;102795.41;4897005;29;1141;-51
2024/01/31 06:45:40;;;;;;;;;;;;;;;17.92;33.88;102797.25;4885066;29;1965;-48
2024/01/31 06:48:08;;;;;;;;;;;;;;;16.25;36.77;102792.63;4902842;29;1371;-48
2024/01/31 06:50:33;;;;;;;;;;;;;;;15.46;38.11;102798.16;4900898;29;1203;-46
2024/01/31 06:52:59;;;;;;;;;;;;;;;16.16;37.39;102798.28;4902755;29;1130;-46
2024/01/31 06:55:25;;;;;;;;;;;;;;;16.64;35.90;102800.88;4901649;29;1115;-50
2024/01/31 06:57:51;;;;;;;;;;;;;;;15.57;37.89;102798.63;4890946;29;1213;-48
2024/01/31 07:00:17;;;;;;;;;;;;;;;16.68;36.51;102791.84;4903170;29;1046;-49
2024/01/31 07:02:42;;;;;;;;;;;;;;;16.91;35.37;102797.13;4890371;29;905;-47
2024/01/31 07:05:08;;;;;;;;;;;;;;;15.98;37.14;102802.50;4903350;29;2335;-44
2024/01/31 07:07:34;;;;;;;;;;;;;;;17.56;34.71;102796.19;4902578;29;1544;-48
2024/01/31 07:09:59;;;;;;;;;;;;;;;17.15;34.66;102791.75;4902651;29;1129;-50
2024/01/31 07:12:25;;;;;;;;;;;;;;;17.59;34.26;102794.28;4903199;29;1010;-49
2024/01/31 07:14:50;;;;;;;;;;;;;;;18.76;32.10;102789.78;4886298;29;921;-46
2024/01/31 07:17:16;;;;;;;;;;;;;;;16.68;35.50;102788.31;4899073;29;1022;-50
2024/01/31 07:19:42;;;;;;;;;;;;;;;17.25;35.15;102788.63;4903142;29;1158;-46
2024/01/31 07:22:08;;;;;;;;;;;;;;;17.97;33.37;102781.94;4902506;29;1089;-47
2024/01/31 07:24:34;;;;;;;;;;;;;;;16.37;36.31;102780.66;4893534;29;1046;-45
2024/01/31 07:27:00;;;;;;;;;;;;;;;18.32;33.07;102774.09;4898759;29;1911;-47
2024/01/31 07:29:26;;;;;;;;;;;;;;;17.59;33.77;102775.63;4902695;29;1079;-48
2024/01/31 07:31:51;;;;;;;;;;;;;;;16.94;35.37;102773.06;4900106;29;1106;-52
2024/01/31 07:34:17;;;;;;;;;;;;;;;18.50;32.61;102773.28;4883792;29;1074;-49
2024/01/31 07:36:42;;;;;;;;;;;;;;;16.76;35.76;102772.94;4898723;29;1113;-47
2024/01/31 07:39:08;;;;;;;;;;;;;;;16.28;36.78;102767.75;4893256;29;903;-49
2024/01/31 07:41:34;;;;;;;;;;;;;;;15.95;37.41;102766.28;4898408;29;1210;-48
2024/01/31 07:43:59;;;;;;;;;;;;;;;17.16;35.14;102772.19;4894465;29;1069;-51
2024/01/31 07:46:25;;;;;;;;;;;;;;;16.11;36.97;102768.41;4885554;29;1906;-49
2024/01/31 07:48:50;;;;;;;;;;;;;;;17.31;35.29;102765.34;4901943;29;1185;-49
2024/01/31 07:51:16;;;;;;;;;;;;;;;16.88;35.46;102755.59;4884868;29;868;-52
2024/01/31 07:53:41;;;;;;;;;;;;;;;16.66;36.46;102761.81;4891907;29;1126;-50
2024/01/31 07:56:07;;;;;;;;;;;;;;;18.45;33.04;102749.53;4901731;29;1046;-47
2024/01/31 07:58:33;;;;;;;;;;;;;;;16.65;36.39;102750.31;4893891;29;1126;-47
2024/01/31 08:00:58;;;;;;;;;;;;;;;18.32;33.54;102755.47;4897464;29;1245;-46
2024/01/31 08:03:24;;;;;;;;;;;;;;;17.73;34.20;102742.22;4884120;29;880;-45
2024/01/31 08:05:50;;;;;;;;;;;;;;;16.50;36.67;102749.16;4883209;29;1978;-50
2024/01/31 08:08:16;;;;;;;;;;;;;;;16.49;36.97;102749.22;4883319;29;1114;-49
2024/01/31 08:10:41;;;;;;;;;;;;;;;16.85;35.80;102739.78;4883212;29;1059;-52
2024/01/31 08:13:07;;;;;;;;;;;;;;;16.03;37.43;102737.69;4883815;29;1109;-49
2024/01/31 08:15:34;;;;;;;;;;;;;;;17.94;34.25;102737.69;4900692;29;901;-49
2024/01/31 08:18:00;;;;;;;;;;;;;;;16.42;36.84;102740.63;4893698;29;1170;-47
2024/01/31 08:20:26;;;;;;;;;;;;;;;17.64;34.90;102730.19;4895311;29;1058;-48
2024/01/31 08:22:51;;;;;;;;;;;;;;;17.44;34.86;102723.97;4884970;29;1138;-51
2024/01/31 08:25:17;;;;;;;;;;;;;;;16.36;36.83;102725.81;4898935;29;1978;-50
2024/01/31 08:27:42;;;;;;;;;;;;;;;16.65;36.70;102726.41;4901646;29;1183;-49
2024/01/31 08:30:08;;;;;;;;;;;;;;;17.23;35.25;102721.31;4889094;29;1192;-47
2024/01/31 08:32:34;;;;;;;;;;;;;;;16.15;37.25;102716.88;4891110;29;1149;-49
2024/01/31 08:35:01;;;;;;;;;;;;;;;18.17;34.04;102722.44;4887528;29;1122;-52
2024/01/31 08:37:26;;;;;;;;;;;;;;;16.79;36.00;102722.28;4890305;29;1106;-51
2024/01/31 08:39:52;;;;;;;;;;;;;;;16.82;36.14;102716.84;4895342;29;1111;-53
2024/01/31 08:42:17;;;;;;;;;;;;;;;17.71;34.40;102717.44;4893793;29;1089;-51
2024/01/31 08:44:43;;;;;;;;;;;;;;;16.32;36.80;102713.56;4884545;29;1042;-47
2024/01/31 08:47:08;;;;;;;;;;;;;;;15.97;37.45;102719.31;4893258;29;1984;-48
2024/01/31 08:49:34;;;;;;;;;;;;;;;15.74;37.86;102717.53;4884423;29;1169;-48
2024/01/31 08:51:59;;;;;;;;;;;;;;;17.26;35.38;102715.03;4901429;29;1090;-47
2024/01/31 08:54:25;;;;;;;;;;;;;;;16.01;37.33;102715.66;4899633;29;1150;-48
2024/01/31 08:56:50;;;;;;;;;;;;;;;15.64;38.06;102709.06;4892712;29;1378;-46
2024/01/31 08:59:17;;;;;;;;;;;;;;;16.62;36.50;102704.41;4888809;29;1121;-49
2024/01/31 09:01:43;;;;;;;;;;;;;;;15.73;38.05;102699.91;4899557;29;1011;-49
2024/01/31 09:04:09;;;;;;;;;;;;;;;17.29;35.47;102695.38;4901320;29;1291;-49
2024/01/31 09:06:35;;;;;;;;;;;;;;;16.24;37.17;102684.69;4901233;29;1902;-45
2024/01/31 09:09:00;;;;;;;;;;;;;;;15.74;38.32;102698.97;4901161;29;1039;-49
2024/01/31 09:11:26;;;;;;;;;;;;;;;16.39;37.16;102687.63;4900313;29;1069;-48
2024/01/31 09:13:51;;;;;;;;;;;;;;;15.95;37.89;102694.63;4892711;29;1130;-46
2024/01/31 09:16:17;;;;;;;;;;;;;;;15.46;38.78;102692.06;4882512;29;1145;-48
2024/01/31 09:18:42;;;;;;;;;;;;;;;16.63;36.80;102688.38;4891311;29;1111;-47
2024/01/31 09:21:08;;;;;;;;;;;;;;;16.23;36.90;102682.94;4900571;29;1133;-50
2024/01/31 09:23:33;;;;;;;;;;;;;;;15.55;38.28;102678.44;4900093;29;1339;-53
2024/01/31 09:26:01;;;;;;;;;;;;;;;15.26;38.81;102673.31;4898773;29;1959;-50
2024/01/31 09:28:27;;;;;;;;;;;;;;;16.64;36.78;102671.53;4900596;29;1419;-46
2024/01/31 09:30:52;;;;;;;;;;;;;;;16.27;36.62;102673.03;4900491;29;1399;-48
2024/01/31 09:33:18;;;;;;;;;;;;;;;15.54;38.25;102666.09;4901328;29;1136;-45
2024/01/31 09:35:43;;;;;;;;;;;;;;;16.67;36.63;102665.22;4901133;29;1066;-48
2024/01/31 09:38:09;;;;;;;;;;;;;;;16.28;36.97;102659.69;4900242;29;1121;-48
2024/01/31 09:40:34;;;;;;;;;;;;;;;15.65;38.15;102655.94;4901000;29;1122;-45
2024/01/31 09:43:00;;;;;;;;;;;;;;;17.41;34.93;102646.97;4901140;29;1071;-47
2024/01/31 09:45:28;;;;;;;;;;;;;;;15.87;37.60;102641.84;4900320;29;1899;-49
2024/01/31 09:47:53;;;;;;;;;;;;;;;15.40;38.49;102643.63;4900658;29;1137;-49
2024/01/31 09:50:19;;;;;;;;;;;;;;;16.07;37.57;102632.25;4899955;29;1332;-52
2024/01/31 09:52:44;;;;;;;;;;;;;;;16.41;36.67;102630.00;4899267;29;1269;-50
2024/01/31 09:55:10;;;;;;;;;;;;;;;15.58;38.40;102622.59;4903210;29;1360;-47
2024/01/31 09:57:36;;;;;;;;;;;;;;;17.72;34.45;102621.56;4892083;29;1142;-47
2024/01/31 10:00:05;;;;;;;;;;;;;;;16.17;37.20;102616.78;4904261;29;1347;-48
2024/01/31 10:02:38;;;;;;;;;;;;;;;17.49;34.97;102617.31;4904011;29;1344;-52
2024/01/31 10:05:06;;;;;;;;;;;;;;;17.18;35.14;102610.78;4904067;29;1394;-49
2024/01/31 10:07:32;;;;;;;;;;;;;;;15.97;37.55;102618.44;4903757;29;1971;-46
2024/01/31 10:09:57;;;;;;;;;;;;;;;15.67;37.81;102611.66;4903406;29;1023;-44
2024/01/31 10:12:23;;;;;;;;;;;;;;;15.38;38.82;102607.47;4903026;29;1105;-46
2024/01/31 10:14:51;;;;;;;;;;;;;;;15.91;38.23;102608.94;4897468;29;1154;-49
2024/01/31 10:17:17;;;;;;;;;;;;;;;17.11;35.08;102604.88;4898016;29;1070;-51
2024/01/31 10:19:42;;;;;;;;;;;;;;;15.71;38.07;102598.25;4894464;29;1114;-44
2024/01/31 10:22:08;;;;;;;;;;;;;;;16.11;37.88;102598.47;4890734;29;1042;-51
2024/01/31 10:24:34;;;;;;;;;;;;;;;16.46;36.39;102593.47;4903847;29;1070;-53
2024/01/31 10:27:02;;;;;;;;;;;;;;;15.53;38.30;102585.66;4891750;29;1914;-48
2024/01/31 10:29:28;;;;;;;;;;;;;;;17.09;35.84;102585.47;4894481;29;1111;-50
2024/01/31 10:31:53;;;;;;;;;;;;;;;16.31;36.86;102578.19;4891382;29;1149;-49
2024/01/31 10:34:19;;;;;;;;;;;;;;;15.57;38.19;102578.44;4894673;29;1066;-50
2024/01/31 10:36:45;;;;;;;;;;;;;;;16.83;36.43;102584.81;4887222;29;1133;-48
2024/01/31 10:39:10;;;;;;;;;;;;;;;15.93;37.76;102581.47;4911237;29;1147;-50
2024/01/31 10:41:36;;;;;;;;;;;;;;;16.97;36.03;102585.06;4899149;29;1127;-46
2024/01/31 10:44:03;;;;;;;;;;;;;;;17.42;34.69;102583.94;4902984;29;1115;-48
2024/01/31 10:46:29;;;;;;;;;;;;;;;16.12;37.24;102579.81;4900261;29;1908;-49
2024/01/31 10:48:54;;;;;;;;;;;;;;;15.67;38.39;102579.81;4893895;29;1195;-49
2024/01/31 10:51:20;;;;;;;;;;;;;;;16.51;36.60;102572.91;4894913;29;2701;-48
2024/01/31 10:53:45;;;;;;;;;;;;;;;15.65;38.39;102572.81;4903095;29;1058;-51
2024/01/31 10:56:11;;;;;;;;;;;;;;;15.88;38.12;102571.91;4917515;29;1202;-47
2024/01/31 10:58:36;;;;;;;;;;;;;;;16.25;36.96;102563.34;4903416;29;1128;-50
2024/01/31 11:01:03;;;;;;;;;;;;;;;15.59;38.46;102566.00;4889330;29;1026;-47
2024/01/31 11:03:29;;;;;;;;;;;;;;;15.40;38.88;102565.84;4894896;29;1035;-49
2024/01/31 11:05:54;;;;;;;;;;;;;;;16.24;36.82;102551.91;4884174;29;1984;-47
2024/01/31 11:11:45;;;;;;;;;;;;;;;17.41;34.79;102550.31;4902646;29;1012;-51
2024/01/31 11:14:14;;;;;;;;;;;;;;;15.96;37.69;102541.53;4902629;29;1086;-50
2024/01/31 11:16:41;;;;;;;;;;;;;;;15.53;38.77;102539.72;4886523;29;957;-48
2024/01/31 11:19:06;;;;;;;;;;;;;;;17.08;35.84;102534.03;4900055;29;1143;-50
2024/01/31 11:21:41;;;;;;;;;;;;;;;15.85;37.73;102531.38;4906183;29;2793;-51
2024/01/31 11:24:06;;;;;;;;;;;;;;;16.92;36.14;102525.03;4896182;29;1034;-51
2024/01/31 11:26:35;;;;;;;;;;;;;;;16.98;35.64;102530.09;4910003;29;1915;-49
2024/01/31 11:29:01;;;;;;;;;;;;;;;15.82;37.75;102516.44;4890280;29;1281;-53
2024/01/31 11:31:27;;;;;;;;;;;;;;;15.90;38.07;102516.09;4896082;29;1059;-53
2024/01/31 11:33:55;;;;;;;;;;;;;;;16.23;37.18;102517.44;4898729;29;1066;-50
2024/01/31 11:36:21;;;;;;;;;;;;;;;16.01;38.12;102510.38;4896350;29;1205;-49
2024/01/31 11:38:47;;;;;;;;;;;;;;;17.89;34.21;102510.72;4889812;29;1050;-50
2024/01/31 11:41:13;;;;;;;;;;;;;;;16.18;37.28;102504.38;4896433;29;983;-47
2024/01/31 11:43:38;;;;;;;;;;;;;;;15.74;38.45;102508.78;4902572;29;1057;-51
2024/01/31 11:46:04;;;;;;;;;;;;;;;15.72;38.69;102492.06;4902182;29;1926;-49
2024/01/31 11:48:29;;;;;;;;;;;;;;;16.48;36.67;102497.78;4888447;29;1206;-53
2024/01/31 11:50:55;;;;;;;;;;;;;;;16.01;38.03;102491.81;4915341;29;2577;-53
2024/01/31 11:53:20;;;;;;;;;;;;;;;18.01;34.03;102493.25;4902083;29;1289;-49
2024/01/31 11:55:47;;;;;;;;;;;;;;;16.50;36.81;102491.44;4913576;29;1030;-51
2024/01/31 11:58:12;;;;;;;;;;;;;;;15.84;38.13;102481.88;4895061;29;1044;-51
2024/01/31 12:00:38;;;;;;;;;;;;;;;15.93;38.18;102476.19;4894975;29;1190;-53
2024/01/31 12:03:03;;;;;;;;;;;;;;;16.68;36.27;102483.59;4900217;29;1098;-50
2024/01/31 12:05:29;;;;;;;;;;;;;;;15.69;38.36;102470.97;4883566;29;2055;-51
2024/01/31 12:07:57;;;;;;;;;;;;;;;15.58;38.73;102476.69;4883583;29;1063;-49
2024/01/31 12:10:24;;;;;;;;;;;;;;;16.44;36.77;102466.94;4894511;29;1178;-53
2024/01/31 12:12:49;;;;;;;;;;;;;;;15.55;38.75;102474.19;4901695;29;1077;-50
2024/01/31 12:15:16;;;;;;;;;;;;;;;15.74;38.67;102465.47;4891490;29;1118;-49
2024/01/31 12:17:42;;;;;;;;;;;;;;;16.94;35.84;102472.66;4901801;29;1244;-49
2024/01/31 12:20:13;;;;;;;;;;;;;;;15.72;38.42;102460.22;4915025;29;2480;-50
2024/01/31 12:22:39;;;;;;;;;;;;;;;16.96;36.28;102461.03;4888352;29;1052;-49
2024/01/31 12:25:05;;;;;;;;;;;;;;;17.05;35.85;102461.53;4901450;29;1054;-53
2024/01/31 12:27:31;;;;;;;;;;;;;;;15.96;37.80;102453.94;4886076;29;1914;-50
2024/01/31 12:29:59;;;;;;;;;;;;;;;15.57;39.02;102453.78;4901064;29;1133;-49
2024/01/31 12:32:25;;;;;;;;;;;;;;;15.54;39.20;102451.25;4883208;29;1063;-48
2024/01/31 12:34:51;;;;;;;;;;;;;;;16.91;36.23;102455.09;4895431;29;1155;-53
2024/01/31 12:37:16;;;;;;;;;;;;;;;16.38;37.81;102450.34;4901636;29;1135;-49
2024/01/31 12:39:42;;;;;;;;;;;;;;;18.20;34.29;102455.06;4900903;29;1089;-54
2024/01/31 12:42:08;;;;;;;;;;;;;;;16.96;36.21;102449.53;4895148;29;1061;-53
2024/01/31 12:44:34;;;;;;;;;;;;;;;16.05;38.17;102440.28;4910120;29;1050;-53